createdAt,value
2018-07-09T00:01:00.917Z,100432.50
2018-07-09T00:03:29.913Z,100425.94
2018-07-09T00:05:58.855Z,100420.37
2018-07-09T00:08:27.820Z,100420.70
2018-07-09T00:10:59.649Z,100422.97
2018-07-09T00:13:29.013Z,100422.73
2018-07-09T00:15:58.147Z,100424.33
2018-07-09T00:18:27.081Z,100414.81
2018-07-09T00:20:56.114Z,100418.54
2018-07-09T00:23:25.006Z,100413.45
2018-07-09T00:25:54.627Z,100412.75
2018-07-09T00:28:24.049Z,100417.19
2018-07-09T00:30:52.982Z,100418.75
2018-07-09T00:33:22.223Z,100418.73
2018-07-09T00:35:51.178Z,100411.91
2018-07-09T00:38:20.490Z,100414.85
2018-07-09T00:40:49.380Z,100413.14
2018-07-09T00:43:18.282Z,100417.45
2018-07-09T00:45:47.193Z,100409.25
2018-07-09T00:48:16.118Z,100414.38
2018-07-09T00:50:45.023Z,100413.91
2018-07-09T00:53:14.018Z,100416.61
2018-07-09T00:55:42.932Z,100410.37
2018-07-09T00:58:11.871Z,100404.91
2018-07-09T01:00:40.769Z,100412.71
2018-07-09T01:03:09.714Z,100418.51
2018-07-09T01:05:38.600Z,100414.53
2018-07-09T01:08:07.517Z,100411.56
2018-07-09T01:10:46.696Z,100410.52
2018-07-09T01:13:15.614Z,100408.77
2018-07-09T01:15:44.537Z,100407.41
2018-07-09T01:18:13.500Z,100408.12
2018-07-09T01:20:42.405Z,100408.23
2018-07-09T01:23:11.295Z,100412.31
2018-07-09T01:25:40.208Z,100414.00
2018-07-09T01:28:09.141Z,100416.61
2018-07-09T01:30:38.072Z,100411.84
2018-07-09T01:33:06.976Z,100407.27
2018-07-09T01:35:35.954Z,100404.08
2018-07-09T01:38:05.038Z,100407.91
2018-07-09T01:40:33.937Z,100405.28
2018-07-09T01:43:02.861Z,100402.89
2018-07-09T01:45:31.783Z,100397.45
2018-07-09T01:48:00.711Z,100400.42
2018-07-09T01:50:29.612Z,100389.98
2018-07-09T01:52:58.531Z,100393.94
2018-07-09T01:55:27.434Z,100388.61
2018-07-09T01:57:56.322Z,100390.97
2018-07-09T02:00:25.227Z,100389.30
2018-07-09T02:02:54.150Z,100391.22
2018-07-09T02:05:23.044Z,100392.91
2018-07-09T02:07:52.024Z,100390.23
2018-07-09T02:10:20.940Z,100395.56
2018-07-09T02:12:49.915Z,100393.31
2018-07-09T02:15:18.867Z,100392.63
2018-07-09T02:17:47.928Z,100391.16
2018-07-09T02:20:16.840Z,100397.28
2018-07-09T02:22:45.804Z,100405.55
2018-07-09T02:25:14.684Z,100401.36
2018-07-09T02:27:43.592Z,100401.11
2018-07-09T02:30:12.570Z,100396.39
2018-07-09T02:32:41.478Z,100391.59
2018-07-09T02:35:10.363Z,100395.92
2018-07-09T02:37:39.253Z,100398.97
2018-07-09T02:40:08.197Z,100400.11
2018-07-09T02:42:37.113Z,100400.68
2018-07-09T02:45:06.261Z,100397.95
2018-07-09T02:47:35.183Z,100391.12
2018-07-09T02:50:04.136Z,100397.09
2018-07-09T02:52:33.185Z,100396.52
2018-07-09T02:55:02.101Z,100402.73
2018-07-09T02:57:31.037Z,100399.08
2018-07-09T02:59:59.992Z,100403.26
2018-07-09T03:02:28.897Z,100400.42
2018-07-09T03:04:57.803Z,100402.42
2018-07-09T03:07:26.718Z,100401.61
2018-07-09T03:09:55.642Z,100409.67
2018-07-09T03:12:24.550Z,100413.39
2018-07-09T03:14:53.457Z,100413.77
2018-07-09T03:17:22.382Z,100421.92
2018-07-09T03:19:51.305Z,100409.56
2018-07-09T03:22:20.210Z,100416.46
2018-07-09T03:24:49.101Z,100413.39
2018-07-09T03:27:18.050Z,100419.03
2018-07-09T03:29:48.015Z,100421.80
2018-07-09T03:32:16.925Z,100422.52
2018-07-09T03:34:45.912Z,100417.41
2018-07-09T03:37:14.894Z,100419.28
2018-07-09T03:39:43.785Z,100419.53
2018-07-09T03:42:12.698Z,100421.73
2018-07-09T03:44:41.679Z,100429.51
2018-07-09T03:47:10.594Z,100426.36
2018-07-09T03:49:39.496Z,100431.11
2018-07-09T03:52:08.430Z,100425.67
2018-07-09T03:54:37.377Z,100431.42
2018-07-09T03:57:06.372Z,100428.05
2018-07-09T03:59:35.353Z,100426.31
2018-07-09T04:02:04.295Z,100431.84
2018-07-09T04:04:33.230Z,100430.23
2018-07-09T04:07:02.183Z,100424.64
2018-07-09T04:09:31.128Z,100429.98
2018-07-09T04:12:00.062Z,100431.11
2018-07-09T04:14:29.060Z,100433.58
2018-07-09T04:16:57.960Z,100432.94
2018-07-09T04:19:26.864Z,100432.69
2018-07-09T04:21:56.145Z,100440.97
2018-07-09T04:24:25.045Z,100431.05
2018-07-09T04:26:54.241Z,100436.63
2018-07-09T04:29:23.182Z,100433.94
2018-07-09T04:31:52.158Z,100439.05
2018-07-09T04:34:21.044Z,100438.53
2018-07-09T04:36:49.995Z,100439.59
2018-07-09T04:39:18.912Z,100445.22
2018-07-09T04:41:47.803Z,100437.28
2018-07-09T04:44:16.787Z,100438.64
2018-07-09T04:46:45.744Z,100439.64
2018-07-09T04:49:14.652Z,100440.37
2018-07-09T04:51:43.564Z,100437.03
2018-07-09T04:54:13.226Z,100441.58
2018-07-09T04:56:42.173Z,100430.23
2018-07-09T04:59:11.146Z,100434.22
2018-07-09T05:01:40.214Z,100430.91
2018-07-09T05:04:09.137Z,100431.23
2018-07-09T05:06:38.053Z,100431.22
2018-07-09T05:09:07.276Z,100435.62
2018-07-09T05:11:36.219Z,100438.02
2018-07-09T05:14:05.157Z,100434.78
2018-07-09T05:16:34.051Z,100434.31
2018-07-09T05:19:02.989Z,100436.56
2018-07-09T05:21:31.882Z,100433.48
2018-07-09T05:24:00.800Z,100439.17
2018-07-09T05:26:29.730Z,100437.94
2018-07-09T05:28:58.652Z,100436.27
2018-07-09T05:31:27.735Z,100441.38
2018-07-09T05:33:56.656Z,100435.95
2018-07-09T05:36:25.581Z,100431.61
2018-07-09T05:38:54.518Z,100434.08
2018-07-09T05:41:23.460Z,100430.37
2018-07-09T05:43:52.413Z,100427.88
2018-07-09T05:46:21.457Z,100436.39
2018-07-09T05:48:50.472Z,100429.70
2018-07-09T05:51:19.425Z,100434.95
2018-07-09T05:53:48.354Z,100430.13
2018-07-09T05:56:17.273Z,100426.27
2018-07-09T05:58:46.203Z,100424.66
2018-07-09T06:01:15.156Z,100433.05
2018-07-09T06:03:44.074Z,100425.43
2018-07-09T06:06:13.044Z,100428.82
2018-07-09T06:08:41.944Z,100431.25
2018-07-09T06:11:10.926Z,100430.27
2018-07-09T06:13:39.832Z,100426.14
2018-07-09T06:16:08.687Z,100422.21
2018-07-09T06:18:37.598Z,100425.51
2018-07-09T06:21:07.370Z,100420.93
2018-07-09T06:23:36.307Z,100420.20
2018-07-09T06:26:05.406Z,100421.45
2018-07-09T06:28:34.333Z,100428.03
2018-07-09T06:31:03.387Z,100417.84
2018-07-09T06:33:32.332Z,100421.05
2018-07-09T06:36:01.269Z,100430.95
2018-07-09T06:38:30.161Z,100433.66
2018-07-09T06:40:59.104Z,100427.97
2018-07-09T06:43:28.069Z,100431.31
2018-07-09T06:45:56.989Z,100429.18
2018-07-09T06:48:25.930Z,100429.27
2018-07-09T06:50:54.904Z,100430.88
2018-07-09T06:53:23.787Z,100437.98
2018-07-09T06:55:52.720Z,100442.08
2018-07-09T06:58:21.702Z,100444.20
2018-07-09T07:00:50.704Z,100444.00
2018-07-09T07:03:19.675Z,100446.05
2018-07-09T07:05:48.740Z,100443.18
2018-07-09T07:08:17.606Z,100440.97
2018-07-09T07:10:46.541Z,100437.45
2018-07-09T07:13:15.556Z,100442.34
2018-07-09T07:15:44.515Z,100435.95
2018-07-09T07:18:13.441Z,100439.77
2018-07-09T07:20:42.399Z,100441.22
2018-07-09T07:23:11.326Z,100446.59
2018-07-09T07:25:40.253Z,100448.46
2018-07-09T07:28:09.177Z,100447.14
2018-07-09T07:30:39.151Z,100447.80
2018-07-09T07:33:08.069Z,100442.80
2018-07-09T07:35:36.985Z,100447.35
2018-07-09T07:38:06.040Z,100441.61
2018-07-09T07:40:34.975Z,100441.47
2018-07-09T07:43:03.960Z,100437.03
2018-07-09T07:45:32.897Z,100429.23
2018-07-09T07:48:01.849Z,100432.44
2018-07-09T07:50:31.007Z,100434.00
2018-07-09T07:52:59.777Z,100428.73
2018-07-09T07:55:28.745Z,100426.47
2018-07-09T07:57:57.676Z,100414.23
2018-07-09T08:00:26.639Z,100412.39
2018-07-09T08:02:55.576Z,100413.92
2018-07-09T08:05:28.352Z,100408.52
2018-07-09T08:07:57.297Z,100406.52
2018-07-09T08:10:26.189Z,100410.67
2018-07-09T08:13:27.169Z,100404.92
2018-07-09T08:15:24.159Z,100404.95
2018-07-09T08:17:53.154Z,100402.39
2018-07-09T08:20:22.080Z,100407.14
2018-07-09T08:22:50.991Z,100394.11
2018-07-09T08:25:19.930Z,100391.88
2018-07-09T08:27:48.875Z,100401.42
2018-07-09T08:30:17.796Z,100386.41
2018-07-09T08:32:46.718Z,100405.81
2018-07-09T08:35:15.645Z,100393.86
2018-07-09T08:37:44.569Z,100393.25
2018-07-09T08:40:13.918Z,100392.47
2018-07-09T08:42:42.840Z,100390.38
2018-07-09T08:45:11.893Z,100391.69
2018-07-09T08:47:40.792Z,100386.45
2018-07-09T08:50:09.679Z,100383.83
2018-07-09T08:52:38.596Z,100377.11
2018-07-09T08:55:07.564Z,100373.31
2018-07-09T08:57:36.521Z,100369.91
2018-07-09T09:00:05.431Z,100368.39
2018-07-09T09:02:34.400Z,100371.88
2018-07-09T09:05:03.323Z,100374.11
2018-07-09T09:07:32.260Z,100370.20
2018-07-09T09:10:01.224Z,100375.19
2018-07-09T09:12:30.114Z,100367.94
2018-07-09T09:14:59.074Z,100374.48
2018-07-09T09:17:28.075Z,100359.20
2018-07-09T09:19:57.019Z,100358.48
2018-07-09T09:22:25.928Z,100356.09
2018-07-09T09:24:54.865Z,100357.20
2018-07-09T09:27:23.780Z,100366.27
2018-07-09T09:29:52.705Z,100356.66
2018-07-09T09:32:21.696Z,100356.48
2018-07-09T09:34:50.619Z,100360.11
2018-07-09T09:37:19.580Z,100365.36
2018-07-09T09:39:48.452Z,100371.66
2018-07-09T09:42:17.392Z,100361.02
2018-07-09T09:44:46.308Z,100362.84
2018-07-09T09:47:15.223Z,100359.16
2018-07-09T09:49:44.145Z,100358.10
2018-07-09T09:52:13.061Z,100355.00
2018-07-09T09:54:41.972Z,100356.38
2018-07-09T09:57:10.917Z,100353.56
2018-07-09T09:59:39.858Z,100347.64
2018-07-09T10:02:08.770Z,100351.89
2018-07-09T10:04:37.716Z,100358.42
2018-07-09T10:07:06.625Z,100354.38
2018-07-09T10:09:35.544Z,100346.31
2018-07-09T10:12:04.428Z,100358.09
2018-07-09T10:14:33.357Z,100351.00
2018-07-09T10:17:02.266Z,100350.80
2018-07-09T10:19:31.166Z,100345.39
2018-07-09T10:22:00.161Z,100346.40
2018-07-09T10:24:29.086Z,100348.43
2018-07-09T10:26:57.990Z,100350.45
2018-07-09T10:29:26.933Z,100352.11
2018-07-09T10:31:55.868Z,100351.50
2018-07-09T10:34:24.811Z,100357.75
2018-07-09T10:36:53.706Z,100362.92
2018-07-09T10:39:22.835Z,100353.95
2018-07-09T10:41:51.817Z,100339.18
2018-07-09T10:44:20.739Z,100336.12
2018-07-09T10:46:49.685Z,100330.69
2018-07-09T10:49:18.749Z,100333.99
2018-07-09T10:51:47.677Z,100321.98
2018-07-09T10:54:16.587Z,100320.98
2018-07-09T10:56:45.480Z,100321.80
2018-07-09T10:59:14.415Z,100319.17
2018-07-09T11:01:43.408Z,100327.82
2018-07-09T11:04:12.321Z,100321.84
2018-07-09T11:06:41.220Z,100314.84
2018-07-09T11:09:10.129Z,100317.72
2018-07-09T11:11:39.074Z,100311.86
2018-07-09T11:14:07.972Z,100318.13
2018-07-09T11:16:36.897Z,100326.84
2018-07-09T11:19:05.876Z,100319.05
2018-07-09T11:21:34.809Z,100307.19
2018-07-09T11:24:03.694Z,100304.42
2018-07-09T11:26:32.632Z,100314.56
2018-07-09T11:29:01.649Z,100306.62
2018-07-09T11:31:30.812Z,100297.01
2018-07-09T11:33:59.714Z,100290.57
2018-07-09T11:36:28.685Z,100287.60
2018-07-09T11:38:57.915Z,100283.98
2018-07-09T11:41:27.052Z,100291.81
2018-07-09T11:43:55.957Z,100292.39
2018-07-09T11:46:24.886Z,100292.48
2018-07-09T11:48:53.817Z,100294.04
2018-07-09T11:51:22.761Z,100285.86
2018-07-09T11:53:51.681Z,100278.07
2018-07-09T11:56:20.665Z,100287.75
2018-07-09T11:58:49.695Z,100293.52
2018-07-09T12:01:18.686Z,100284.67
2018-07-09T12:03:47.888Z,100294.80
2018-07-09T12:06:16.821Z,100298.83
2018-07-09T12:08:45.760Z,100306.98
2018-07-09T12:11:14.833Z,100305.31
2018-07-09T12:13:43.770Z,100300.16
2018-07-09T12:16:12.676Z,100303.89
2018-07-09T12:18:41.584Z,100315.57
2018-07-09T12:21:10.480Z,100316.91
2018-07-09T12:23:39.383Z,100312.19
2018-07-09T12:26:08.281Z,100316.13
2018-07-09T12:28:37.245Z,100302.89
2018-07-09T12:31:06.228Z,100315.41
2018-07-09T12:33:35.128Z,100306.42
2018-07-09T12:36:04.967Z,100307.34
2018-07-09T12:38:33.859Z,100289.95
2018-07-09T12:41:02.781Z,100297.66
2018-07-09T12:43:31.680Z,100283.73
2018-07-09T12:46:00.605Z,100288.61
2018-07-09T12:48:29.555Z,100287.19
2018-07-09T12:50:58.512Z,100279.55
2018-07-09T12:53:27.439Z,100276.38
2018-07-09T12:55:56.499Z,100267.22
2018-07-09T12:58:25.613Z,100271.69
2018-07-09T13:00:54.636Z,100267.38
2018-07-09T13:03:23.967Z,100254.42
2018-07-09T13:05:52.895Z,100266.02
2018-07-09T13:08:21.810Z,100259.03
2018-07-09T13:10:50.781Z,100255.29
2018-07-09T13:13:19.702Z,100246.80
2018-07-09T13:15:48.624Z,100251.69
2018-07-09T13:18:17.526Z,100251.63
2018-07-09T13:20:46.425Z,100242.40
2018-07-09T13:23:15.355Z,100243.99
2018-07-09T13:25:44.298Z,100246.70
2018-07-09T13:28:13.451Z,100238.25
2018-07-09T13:30:42.403Z,100234.20
2018-07-09T13:33:11.321Z,100231.88
2018-07-09T13:35:40.212Z,100242.66
2018-07-09T13:38:09.213Z,100248.75
2018-07-09T13:40:38.107Z,100239.32
2018-07-09T13:43:07.065Z,100222.47
2018-07-09T13:45:36.044Z,100237.36
2018-07-09T13:48:10.611Z,100246.32
2018-07-09T13:50:39.537Z,100233.52
2018-07-09T13:53:08.472Z,100237.33
2018-07-09T13:55:37.383Z,100235.97
2018-07-09T13:58:06.289Z,100219.09
2018-07-09T14:00:35.231Z,100219.69
2018-07-09T14:03:04.138Z,100225.68
2018-07-09T14:05:33.075Z,100226.47
2018-07-09T14:08:02.038Z,100224.05
2018-07-09T14:10:31.019Z,100225.20
2018-07-09T14:12:59.984Z,100222.46
2018-07-09T14:15:28.955Z,100235.30
2018-07-09T14:17:57.913Z,100217.91
2018-07-09T14:20:29.577Z,100222.49
2018-07-09T14:22:59.003Z,100210.21
2018-07-09T14:25:27.913Z,100206.67
2018-07-09T14:27:56.850Z,100199.89
2018-07-09T14:30:25.845Z,100198.12
2018-07-09T14:32:54.897Z,100199.34
2018-07-09T14:35:23.822Z,100205.97
2018-07-09T14:37:53.029Z,100194.00
2018-07-09T14:40:22.090Z,100184.13
2018-07-09T14:42:51.057Z,100188.89
2018-07-09T14:45:20.012Z,100186.41
2018-07-09T14:47:49.006Z,100184.11
2018-07-09T14:50:18.020Z,100187.16
2018-07-09T14:52:47.007Z,100183.98
2018-07-09T14:55:15.966Z,100173.25
2018-07-09T14:57:44.940Z,100171.52
2018-07-09T15:00:13.893Z,100173.97
2018-07-09T15:02:42.850Z,100169.72
2018-07-09T15:05:11.833Z,100161.19
2018-07-09T15:07:40.745Z,100158.34
2018-07-09T15:10:09.709Z,100159.47
2018-07-09T15:12:38.700Z,100149.30
2018-07-09T15:15:07.688Z,100157.19
2018-07-09T15:17:36.590Z,100139.39
2018-07-09T15:20:05.577Z,100127.14
2018-07-09T15:22:34.571Z,100142.77
2018-07-09T15:25:03.530Z,100133.82
2018-07-09T15:27:32.460Z,100141.58
2018-07-09T15:30:01.495Z,100125.69
2018-07-09T15:32:31.473Z,100129.59
2018-07-09T15:35:00.520Z,100130.51
2018-07-09T15:37:29.821Z,100126.95
2018-07-09T15:39:58.751Z,100139.70
2018-07-09T15:42:27.747Z,100133.22
2018-07-09T15:44:56.605Z,100132.37
2018-07-09T15:47:25.540Z,100140.90
2018-07-09T15:49:54.431Z,100130.67
2018-07-09T15:52:23.406Z,100126.73
2018-07-09T15:54:52.298Z,100124.72
2018-07-09T15:57:21.260Z,100125.22
2018-07-09T15:59:50.216Z,100117.70
2018-07-09T16:02:19.158Z,100131.36
2018-07-09T16:04:48.075Z,100129.95
2018-07-09T16:07:16.981Z,100123.32
2018-07-09T16:09:45.895Z,100126.03
2018-07-09T16:12:14.899Z,100123.34
2018-07-09T16:14:43.813Z,100116.48
2018-07-09T16:17:12.749Z,100108.63
2018-07-09T16:19:41.652Z,100119.13
2018-07-09T16:22:10.690Z,100114.20
2018-07-09T16:24:39.664Z,100111.48
2018-07-09T16:27:08.673Z,100108.17
2018-07-09T16:29:37.641Z,100111.11
2018-07-09T16:32:06.553Z,100110.08
2018-07-09T16:34:35.474Z,100104.97
2018-07-09T16:37:04.373Z,100103.77
2018-07-09T16:39:33.315Z,100105.34
2018-07-09T16:42:02.149Z,100106.09
2018-07-09T16:44:31.088Z,100098.81
2018-07-09T16:46:59.989Z,100110.33
2018-07-09T16:49:28.876Z,100109.49
2018-07-09T16:51:57.783Z,100105.16
2018-07-09T16:54:26.697Z,100112.59
2018-07-09T16:56:55.601Z,100107.67
2018-07-09T16:59:24.500Z,100100.76
2018-07-09T17:01:53.405Z,100103.52
2018-07-09T17:04:22.344Z,100103.39
2018-07-09T17:06:51.288Z,100105.99
2018-07-09T17:09:20.203Z,100103.78
2018-07-09T17:11:49.105Z,100103.97
2018-07-09T17:14:18.131Z,100103.98
2018-07-09T17:16:47.265Z,100106.49
2018-07-09T17:19:16.205Z,100107.94
2018-07-09T17:21:45.146Z,100100.19
2018-07-09T17:24:14.076Z,100100.33
2018-07-09T17:26:43.016Z,100103.68
2018-07-09T17:29:11.876Z,100100.03
2018-07-09T17:31:40.800Z,100101.77
2018-07-09T17:34:09.708Z,100095.67
2018-07-09T17:36:38.620Z,100098.53
2018-07-09T17:39:07.643Z,100090.43
2018-07-09T17:41:36.663Z,100094.94
2018-07-09T17:44:05.716Z,100104.21
2018-07-09T17:46:34.582Z,100108.20
2018-07-09T17:49:03.483Z,100107.77
2018-07-09T17:51:32.382Z,100104.19
2018-07-09T17:54:01.314Z,100101.62
2018-07-09T17:56:30.265Z,100103.19
2018-07-09T17:58:59.201Z,100099.64
2018-07-09T18:01:28.163Z,100104.16
2018-07-09T18:03:57.243Z,100103.66
2018-07-09T18:06:26.170Z,100097.56
2018-07-09T18:08:55.065Z,100104.59
2018-07-09T18:11:23.994Z,100111.61
2018-07-09T18:13:52.946Z,100110.11
2018-07-09T18:16:21.857Z,100113.72
2018-07-09T18:18:50.753Z,100115.69
2018-07-09T18:21:19.662Z,100113.31
2018-07-09T18:23:48.596Z,100118.20
2018-07-09T18:26:17.530Z,100120.61
2018-07-09T18:28:46.453Z,100118.34
2018-07-09T18:31:15.390Z,100124.50
2018-07-09T18:33:44.280Z,100122.02
2018-07-09T18:36:13.175Z,100121.89
2018-07-09T18:38:42.671Z,100116.19
2018-07-09T18:41:11.477Z,100124.31
2018-07-09T18:43:40.363Z,100127.86
2018-07-09T18:46:09.268Z,100123.69
2018-07-09T18:48:38.229Z,100126.47
2018-07-09T18:51:07.064Z,100121.41
2018-07-09T18:53:35.952Z,100131.89
2018-07-09T18:56:05.052Z,100131.24
2018-07-09T18:58:34.141Z,100126.36
2018-07-09T19:01:02.846Z,100127.20
2018-07-09T19:03:37.583Z,100128.80
2018-07-09T19:06:46.080Z,100128.41
2018-07-09T19:11:42.763Z,100132.59
2018-07-09T19:14:12.363Z,100130.27
2018-07-09T19:16:52.986Z,100129.73
2018-07-09T19:19:34.281Z,100131.51
2018-07-09T19:22:03.790Z,100132.16
2018-07-09T19:24:32.253Z,100129.59
2018-07-09T19:27:00.945Z,100132.00
2018-07-09T19:29:28.942Z,100138.72
2018-07-09T19:31:56.899Z,100141.70
2018-07-09T19:34:24.849Z,100146.84
2018-07-09T19:36:52.901Z,100152.11
2018-07-09T19:39:20.748Z,100150.67
2018-07-09T19:41:48.809Z,100156.47
2018-07-09T19:44:16.690Z,100157.44
2018-07-09T19:46:44.642Z,100164.13
2018-07-09T19:49:12.693Z,100162.58
2018-07-09T19:51:40.641Z,100163.98
2018-07-09T19:54:08.612Z,100162.95
2018-07-09T19:56:36.621Z,100166.71
2018-07-09T19:59:04.645Z,100167.84
2018-07-09T20:01:32.628Z,100169.78
2018-07-09T20:04:00.711Z,100164.58
2018-07-09T20:06:28.650Z,100161.66
2018-07-09T20:09:02.113Z,100160.20
2018-07-09T20:11:35.534Z,100165.31
2018-07-09T20:14:08.952Z,100159.88
2018-07-09T20:16:42.358Z,100161.80
2018-07-09T20:19:10.717Z,100161.35
2018-07-09T20:21:38.678Z,100163.43
2018-07-09T20:24:06.629Z,100160.02
2018-07-09T20:26:34.620Z,100160.82
2018-07-09T20:29:02.682Z,100157.09
2018-07-09T20:31:30.635Z,100154.58
2018-07-09T20:33:58.622Z,100149.90
2018-07-09T20:36:26.565Z,100155.70
2018-07-09T20:38:54.540Z,100155.68
2018-07-09T20:41:23.413Z,100155.56
2018-07-09T20:43:51.386Z,100164.52
2018-07-09T20:46:19.453Z,100163.03
2018-07-09T20:48:47.443Z,100163.13
2018-07-09T20:51:15.489Z,100170.59
2018-07-09T20:53:43.442Z,100167.89
2018-07-09T20:56:11.391Z,100161.98
2018-07-09T20:58:39.572Z,100172.61
2018-07-09T21:01:07.547Z,100162.97
2018-07-09T21:03:35.513Z,100161.01
2018-07-09T21:06:03.473Z,100159.65
2018-07-09T21:08:31.443Z,100163.58
2018-07-09T21:10:59.406Z,100154.75
2018-07-09T21:13:30.588Z,100152.97
2018-07-09T21:15:58.713Z,100150.00
2018-07-09T21:18:26.816Z,100145.93
2018-07-09T21:20:54.812Z,100146.46
2018-07-09T21:23:22.776Z,100150.67
2018-07-09T21:25:50.743Z,100151.67
2018-07-09T21:28:18.762Z,100153.03
2018-07-09T21:30:46.739Z,100157.67
2018-07-09T21:33:14.695Z,100162.17
2018-07-09T21:35:42.709Z,100163.73
2018-07-09T21:38:10.655Z,100166.08
2018-07-09T21:40:38.629Z,100159.50
2018-07-09T21:43:06.683Z,100161.39
2018-07-09T21:45:34.643Z,100160.49
2018-07-09T21:48:10.564Z,100154.59
2018-07-09T21:50:30.592Z,100166.34
2018-07-09T21:55:32.760Z,100168.91
2018-07-09T21:58:00.719Z,100164.91
2018-07-09T22:00:28.943Z,100163.41
2018-07-09T22:02:56.936Z,100165.53
2018-07-09T22:05:25.073Z,100162.56
2018-07-09T22:07:53.032Z,100165.84
2018-07-09T22:10:20.987Z,100163.48
2018-07-09T22:12:48.940Z,100158.69
2018-07-09T22:15:16.910Z,100162.66
2018-07-09T22:17:44.855Z,100163.89
2018-07-09T22:20:12.928Z,100169.07
2018-07-09T22:22:40.889Z,100167.40
2018-07-09T22:25:08.868Z,100169.98
2018-07-09T22:27:36.818Z,100170.42
2018-07-09T22:30:04.848Z,100174.59
2018-07-09T22:32:33.744Z,100176.30
2018-07-09T22:35:02.652Z,100166.80
2018-07-09T22:37:31.732Z,100170.90
2018-07-09T22:40:00.651Z,100173.14
2018-07-09T22:42:29.512Z,100178.47
2018-07-09T22:44:58.479Z,100173.86
2018-07-09T22:47:27.395Z,100174.59
2018-07-09T22:49:56.299Z,100167.98
2018-07-09T22:52:25.251Z,100169.81
2018-07-09T22:55:05.539Z,100178.23
2018-07-09T22:57:34.412Z,100170.34
2018-07-09T23:00:03.336Z,100164.81
2018-07-09T23:02:32.249Z,100177.61
2018-07-09T23:05:01.139Z,100179.44
2018-07-09T23:07:30.054Z,100178.23
2018-07-09T23:10:13.152Z,100174.95
2018-07-09T23:16:37.435Z,100180.95
2018-07-09T23:19:21.168Z,100181.95
2018-07-09T23:22:01.578Z,100189.72
2018-07-09T23:24:29.562Z,100188.05
2018-07-09T23:26:57.773Z,100191.82
2018-07-09T23:29:25.770Z,100190.71
2018-07-09T23:31:53.738Z,100191.25
2018-07-09T23:34:21.830Z,100190.56
2018-07-09T23:36:49.807Z,100189.16
2018-07-09T23:39:17.749Z,100188.02
2018-07-09T23:41:45.730Z,100182.84
2018-07-09T23:44:13.729Z,100174.55
2018-07-09T23:46:41.721Z,100172.52
2018-07-09T23:49:09.688Z,100179.55
2018-07-09T23:51:37.911Z,100183.04
2018-07-09T23:54:05.890Z,100183.11
2018-07-09T23:58:49.512Z,100187.38
